createdAt,value
2019-04-20T00:00:17.003Z,50.0
2019-04-20T00:01:29.165Z,50.1
2019-04-20T00:02:22.406Z,49.7
2019-04-20T00:03:18.206Z,49.9
2019-04-20T00:04:26.899Z,49.9
2019-04-20T00:05:17.057Z,50.5
2019-04-20T00:06:17.445Z,50.3
2019-04-20T00:07:26.975Z,50.8
2019-04-20T00:08:24.943Z,51.2
2019-04-20T00:09:28.751Z,50.9
2019-04-20T00:10:23.978Z,50.4
2019-04-20T00:11:31.055Z,51.0
2019-04-20T00:12:36.409Z,51.0
2019-04-20T00:13:40.412Z,50.5
2019-04-20T00:14:27.599Z,51.0
2019-04-20T00:15:17.639Z,51.0
2019-04-20T00:16:17.009Z,51.6
2019-04-20T00:17:16.270Z,51.5
2019-04-20T00:18:17.133Z,51.5
2019-04-20T00:19:31.798Z,51.3
2019-04-20T00:20:27.810Z,51.3
2019-04-20T00:21:19.143Z,51.2
2019-04-20T00:22:18.711Z,51.4
2019-04-20T00:23:31.296Z,51.9
2019-04-20T00:24:27.230Z,52.3
2019-04-20T00:25:23.534Z,52.2
2019-04-20T00:27:48.449Z,52.6
2019-04-20T00:28:44.095Z,53.0
2019-04-20T00:29:44.672Z,52.7
2019-04-20T00:30:46.532Z,53.0
2019-04-20T00:31:42.696Z,53.1
2019-04-20T00:32:41.108Z,53.7
2019-04-20T00:33:39.437Z,54.2
2019-04-20T00:34:29.642Z,54.1
2019-04-20T00:35:16.996Z,55.1
2019-04-20T00:36:16.299Z,55.3
2019-04-20T00:37:17.171Z,55.5
2019-04-20T00:38:16.438Z,55.8
2019-04-20T00:39:20.165Z,56.0
2019-04-20T00:40:17.219Z,56.1
2019-04-20T00:41:21.056Z,56.2
2019-04-20T00:42:21.183Z,56.6
2019-04-20T00:43:30.206Z,56.9
2019-04-20T00:44:28.493Z,57.3
2019-04-20T00:45:29.989Z,57.4
2019-04-20T00:46:35.663Z,57.9
2019-04-20T00:47:36.743Z,58.3
2019-04-20T00:48:37.257Z,58.6
2019-04-20T00:49:38.643Z,59.2
2019-04-20T00:50:44.267Z,59.5
2019-04-20T00:51:44.710Z,59.9
2019-04-20T00:52:39.823Z,60.5
2019-04-20T00:53:33.238Z,61.0
2019-04-20T00:54:18.225Z,61.1
2019-04-20T00:55:17.133Z,61.5
2019-04-20T00:56:16.388Z,62.1
2019-04-20T00:57:36.724Z,62.7
2019-04-20T00:58:31.438Z,62.8
2019-04-20T00:59:39.230Z,63.1
2019-04-20T01:00:40.415Z,63.2
2019-04-20T01:01:47.330Z,63.6
2019-04-20T01:02:40.215Z,64.2
2019-04-20T01:03:42.195Z,64.2
2019-04-20T01:04:47.378Z,64.1
2019-04-20T01:05:51.914Z,64.4
2019-04-20T01:06:40.473Z,64.3
2019-04-20T01:07:34.538Z,64.6
2019-04-20T01:08:17.216Z,64.5
2019-04-20T01:09:16.481Z,64.2
2019-04-20T01:10:17.421Z,64.4
2019-04-20T01:11:24.386Z,64.8
2019-04-20T01:12:26.701Z,64.5
2019-04-20T01:13:23.768Z,64.7
2019-04-20T01:14:30.781Z,64.8
2019-04-20T01:15:37.425Z,64.6
2019-04-20T01:16:38.444Z,64.5
2019-04-20T01:17:17.015Z,64.8
2019-04-20T01:18:16.277Z,64.9
2019-04-20T01:19:20.560Z,64.6
2019-04-20T01:20:16.939Z,64.5
2019-04-20T01:21:26.498Z,64.6
2019-04-20T01:22:23.983Z,64.3
2019-04-20T01:23:22.862Z,64.3
2019-04-20T01:24:31.242Z,64.6
2019-04-20T01:25:26.895Z,64.8
2019-04-20T01:26:21.322Z,64.8
2019-04-20T01:27:39.496Z,64.8
2019-04-20T01:28:46.214Z,65.0
2019-04-20T01:29:35.476Z,65.4
2019-04-20T01:30:33.846Z,65.0
2019-04-20T01:31:34.487Z,65.2
2019-04-20T01:32:34.140Z,65.2
2019-04-20T01:33:39.958Z,65.5
2019-04-20T01:34:38.836Z,65.8
2019-04-20T01:35:43.769Z,65.9
2019-04-20T01:36:45.583Z,66.2
2019-04-20T01:37:35.940Z,66.7
2019-04-20T01:38:43.413Z,66.8
2019-04-20T01:39:34.199Z,66.8
2019-04-20T01:40:17.120Z,67.0
2019-04-20T01:41:18.311Z,67.4
2019-04-20T01:42:17.367Z,67.8
2019-04-20T01:43:16.636Z,67.8
2019-04-20T01:44:29.704Z,68.1
2019-04-20T01:45:31.085Z,68.3
2019-04-20T01:46:26.358Z,68.5
2019-04-20T01:47:17.208Z,68.5
2019-04-20T01:48:30.431Z,68.7
2019-04-20T01:49:25.355Z,68.8
2019-04-20T01:50:28.324Z,69.2
2019-04-20T01:51:28.506Z,69.5
2019-04-20T01:52:28.529Z,69.6
2019-04-20T01:54:45.154Z,69.9
2019-04-20T01:55:38.461Z,69.8
2019-04-20T01:56:39.967Z,70.0
2019-04-20T01:57:32.696Z,70.3
2019-04-20T01:58:39.323Z,70.3
2019-04-20T01:59:39.526Z,70.0
2019-04-20T02:00:30.648Z,70.5
2019-04-20T02:01:27.962Z,70.6
2019-04-20T02:02:22.500Z,70.5
2019-04-20T02:03:17.170Z,71.1
2019-04-20T02:04:27.074Z,70.9
2019-04-20T02:05:29.375Z,70.8
2019-04-20T02:06:23.102Z,70.9
2019-04-20T02:07:33.488Z,72.0
2019-04-20T02:08:24.882Z,72.2
2019-04-20T02:09:25.683Z,72.2
2019-04-20T02:10:20.045Z,72.3
2019-04-20T02:11:29.350Z,72.5
2019-04-20T02:12:28.974Z,72.4
2019-04-20T02:13:17.480Z,73.3
2019-04-20T02:14:35.489Z,73.3
2019-04-20T02:15:32.459Z,73.7
2019-04-20T02:16:35.325Z,73.9
2019-04-20T02:17:35.118Z,74.2
2019-04-20T02:18:35.773Z,74.6
2019-04-20T02:19:41.205Z,73.9
2019-04-20T02:20:42.694Z,74.0
2019-04-20T02:21:42.069Z,74.1
2019-04-20T02:22:46.153Z,74.0
2019-04-20T02:23:35.599Z,73.8
2019-04-20T02:24:19.549Z,73.8
2019-04-20T02:25:16.926Z,74.2
2019-04-20T02:26:17.997Z,74.0
2019-04-20T02:27:34.454Z,74.2
2019-04-20T02:28:53.436Z,74.6
2019-04-20T02:29:50.080Z,74.3
2019-04-20T02:31:04.038Z,75.0
2019-04-20T02:32:09.872Z,75.1
2019-04-20T02:33:05.357Z,74.3
2019-04-20T02:33:55.437Z,74.0
2019-04-20T02:34:59.064Z,74.0
2019-04-20T02:36:00.375Z,74.2
2019-04-20T02:37:07.478Z,74.0
2019-04-20T02:38:10.224Z,74.3
2019-04-20T02:39:20.783Z,75.0
2019-04-20T02:39:59.715Z,75.2
2019-04-20T02:40:56.587Z,75.5
2019-04-20T02:41:49.521Z,75.4
2019-04-20T02:43:57.488Z,75.0
2019-04-20T02:45:08.398Z,75.2
2019-04-20T02:47:06.728Z,75.3
2019-04-20T02:48:00.667Z,75.3
2019-04-20T02:49:56.257Z,75.2
2019-04-20T02:50:58.186Z,75.4
2019-04-20T02:51:52.193Z,75.2
2019-04-20T02:53:02.534Z,75.5
2019-04-20T02:54:10.855Z,75.4
2019-04-20T02:55:55.166Z,75.9
2019-04-20T02:59:01.785Z,75.6
2019-04-20T02:59:58.577Z,75.7
2019-04-20T03:00:44.266Z,75.9
2019-04-20T03:01:44.908Z,76.3
2019-04-20T03:02:38.113Z,76.1
2019-04-20T03:03:34.407Z,76.2
2019-04-20T03:04:36.940Z,76.1
2019-04-20T03:05:35.821Z,76.3
2019-04-20T03:06:39.433Z,76.2
2019-04-20T03:07:49.934Z,76.4
2019-04-20T03:08:42.856Z,76.3
2019-04-20T03:09:39.540Z,76.5
2019-04-20T03:11:58.066Z,76.6
2019-04-20T03:12:42.575Z,76.5
2019-04-20T03:13:48.383Z,76.5
2019-04-20T03:14:42.169Z,76.8
2019-04-20T03:15:41.625Z,76.8
2019-04-20T03:16:43.472Z,77.1
2019-04-20T03:17:44.281Z,77.2
2019-04-20T03:18:44.178Z,77.6
2019-04-20T03:19:40.733Z,77.9
2019-04-20T03:20:51.759Z,77.9
2019-04-20T03:21:51.152Z,77.8
2019-04-20T03:23:10.073Z,77.8
2019-04-20T03:23:49.811Z,78.2
2019-04-20T03:24:48.412Z,78.2
2019-04-20T03:25:42.541Z,78.2
2019-04-20T03:26:40.038Z,78.3
2019-04-20T03:27:40.860Z,78.3
2019-04-20T03:28:38.453Z,78.3
2019-04-20T03:29:39.600Z,78.3
2019-04-20T03:31:19.982Z,78.3
2019-04-20T03:32:12.722Z,78.4
2019-04-20T03:33:01.960Z,78.4
2019-04-20T03:34:12.788Z,78.5
2019-04-20T03:35:48.851Z,78.4
2019-04-20T03:36:46.738Z,78.6
2019-04-20T03:37:48.147Z,78.7
2019-04-20T03:39:35.832Z,79.0
2019-04-20T03:40:39.799Z,79.0
2019-04-20T03:41:30.925Z,79.0
2019-04-20T03:42:16.304Z,79.2
2019-04-20T03:43:16.567Z,78.9
2019-04-20T03:44:24.301Z,79.0
2019-04-20T03:45:22.756Z,79.0
2019-04-20T03:46:33.922Z,79.0
2019-04-20T03:47:37.696Z,79.2
2019-04-20T03:48:40.611Z,79.1
2019-04-20T03:49:54.457Z,79.0
2019-04-20T03:50:46.118Z,79.2
2019-04-20T03:51:39.594Z,79.2
2019-04-20T03:52:42.752Z,79.2
2019-04-20T03:53:49.846Z,79.0
2019-04-20T03:54:41.190Z,79.2
2019-04-20T03:55:44.312Z,79.3
2019-04-20T03:56:48.988Z,79.3
2019-04-20T03:57:51.048Z,79.5
2019-04-20T03:58:44.016Z,79.7
2019-04-20T03:59:48.323Z,79.8
2019-04-20T04:00:45.385Z,79.6
2019-04-20T04:02:07.299Z,79.8
2019-04-20T04:03:01.286Z,79.8
2019-04-20T04:03:52.941Z,79.9
2019-04-20T04:04:49.103Z,80.0
2019-04-20T04:05:44.229Z,79.9
2019-04-20T04:06:35.929Z,80.3
2019-04-20T04:07:32.187Z,80.2
2019-04-20T04:08:34.330Z,80.3
2019-04-20T04:09:36.941Z,80.3
2019-04-20T04:10:47.534Z,80.3
2019-04-20T04:11:43.028Z,80.2
2019-04-20T04:12:32.246Z,80.0
2019-04-20T04:13:17.119Z,80.2
2019-04-20T04:14:17.831Z,80.0
2019-04-20T04:15:17.097Z,80.0
2019-04-20T04:16:21.940Z,80.1
2019-04-20T04:17:28.674Z,80.2
2019-04-20T04:18:27.695Z,80.3
2019-04-20T04:19:28.340Z,80.2
2019-04-20T04:20:20.983Z,80.2
2019-04-20T04:21:44.510Z,80.4
2019-04-20T04:22:43.240Z,80.2
2019-04-20T04:23:44.319Z,80.2
2019-04-20T04:24:36.623Z,80.0
2019-04-20T04:25:36.842Z,80.0
2019-04-20T04:26:38.788Z,80.2
2019-04-20T04:27:47.859Z,80.1
2019-04-20T04:28:43.159Z,80.2
2019-04-20T04:29:41.742Z,80.5
2019-04-20T04:30:39.871Z,80.5
2019-04-20T04:31:55.192Z,80.4
2019-04-20T04:33:06.569Z,80.3
2019-04-20T04:33:51.532Z,80.5
2019-04-20T04:34:42.879Z,80.8
2019-04-20T04:35:41.157Z,81.2
2019-04-20T04:36:49.643Z,81.2
2019-04-20T04:37:45.553Z,81.0
2019-04-20T04:39:48.314Z,80.5
2019-04-20T04:40:55.010Z,80.6
2019-04-20T04:41:39.467Z,80.4
2019-04-20T04:43:43.927Z,80.5
2019-04-20T04:44:39.836Z,80.5
2019-04-20T04:45:23.657Z,80.6
2019-04-20T04:46:16.668Z,80.7
2019-04-20T04:47:18.261Z,80.4
2019-04-20T04:48:29.764Z,80.4
2019-04-20T04:49:31.883Z,80.3
2019-04-20T04:50:25.152Z,80.2
2019-04-20T04:51:29.376Z,80.0
2019-04-20T04:52:35.923Z,80.0
2019-04-20T04:53:41.459Z,79.8
2019-04-20T04:54:27.820Z,79.7
2019-04-20T04:55:36.910Z,79.4
2019-04-20T04:56:23.367Z,79.3
2019-04-20T04:57:17.802Z,79.3
2019-04-20T04:58:17.434Z,79.1
2019-04-20T04:59:17.250Z,79.2
2019-04-20T05:00:26.507Z,79.2
2019-04-20T05:01:28.513Z,78.8
2019-04-20T05:02:17.971Z,78.5
2019-04-20T05:03:44.518Z,78.5
2019-04-20T05:04:48.130Z,78.2
2019-04-20T05:05:48.473Z,78.0
2019-04-20T05:06:37.212Z,78.2
2019-04-20T05:07:43.327Z,78.2
2019-04-20T05:08:34.350Z,78.0
2019-04-20T05:09:19.393Z,78.3
2019-04-20T05:10:20.382Z,78.0
2019-04-20T05:11:17.438Z,78.0
2019-04-20T05:12:24.215Z,77.9
2019-04-20T05:13:17.824Z,77.9
2019-04-20T05:14:32.881Z,77.5
2019-04-20T05:15:42.226Z,77.4
2019-04-20T05:16:44.916Z,77.8
2019-04-20T05:17:49.931Z,77.8
2019-04-20T05:18:49.882Z,77.5
2019-04-20T05:19:47.311Z,77.5
2019-04-20T05:20:52.903Z,77.4
2019-04-20T05:21:35.589Z,77.2
2019-04-20T05:22:45.302Z,76.9
2019-04-20T05:23:40.854Z,77.1
2019-04-20T05:24:42.252Z,76.8
2019-04-20T05:25:51.831Z,76.2
2019-04-20T05:26:42.221Z,76.3
2019-04-20T05:27:45.050Z,75.6
2019-04-20T05:28:40.189Z,75.8
2019-04-20T05:29:29.906Z,75.8
2019-04-20T05:30:18.105Z,75.4
2019-04-20T05:31:18.650Z,75.2
2019-04-20T05:32:35.646Z,75.2
2019-04-20T05:33:48.359Z,75.3
2019-04-20T05:34:52.220Z,74.7
2019-04-20T05:35:48.468Z,74.3
2019-04-20T05:36:49.144Z,74.2
2019-04-20T05:37:48.538Z,74.8
2019-04-20T05:38:46.779Z,74.7
2019-04-20T05:39:49.900Z,74.5
2019-04-20T05:40:49.884Z,74.2
2019-04-20T05:41:45.083Z,73.6
2019-04-20T05:42:48.081Z,73.6
2019-04-20T05:43:46.646Z,73.8
2019-04-20T05:44:49.697Z,73.7
2019-04-20T05:45:41.217Z,73.9
2019-04-20T05:46:45.688Z,73.8
2019-04-20T05:47:47.506Z,73.3
2019-04-20T05:48:50.310Z,73.1
2019-04-20T05:49:44.889Z,72.7
2019-04-20T05:50:48.081Z,72.6
2019-04-20T05:52:50.068Z,72.8
2019-04-20T05:53:44.193Z,72.8
2019-04-20T05:54:50.463Z,72.3
2019-04-20T05:55:48.639Z,71.5
2019-04-20T05:56:45.354Z,71.2
2019-04-20T05:57:49.957Z,71.7
2019-04-20T05:58:44.635Z,70.8
2019-04-20T06:00:54.918Z,70.3
2019-04-20T06:01:52.200Z,70.8
2019-04-20T06:02:49.327Z,69.9
2019-04-20T06:03:42.200Z,69.3
2019-04-20T06:05:57.708Z,69.2
2019-04-20T06:06:44.207Z,68.0
2019-04-20T06:07:47.156Z,67.4
2019-04-20T06:08:53.550Z,67.8
2019-04-20T06:09:46.082Z,66.8
2019-04-20T06:10:49.255Z,65.5
2019-04-20T06:11:54.865Z,64.8
2019-04-20T06:12:39.846Z,64.2
2019-04-20T06:13:42.343Z,62.8
2019-04-20T06:14:42.394Z,62.4
2019-04-20T06:15:45.987Z,63.1
2019-04-20T06:16:49.672Z,62.8
2019-04-20T06:17:48.714Z,61.9
2019-04-20T06:18:39.939Z,60.6
2019-04-20T06:19:43.625Z,60.8
2019-04-20T06:20:47.503Z,60.2
2019-04-20T06:21:50.180Z,60.4
2019-04-20T06:22:48.212Z,59.5
2019-04-20T06:23:44.333Z,58.2
2019-04-20T06:24:51.448Z,57.6
2019-04-20T06:26:03.435Z,57.0
2019-04-20T06:26:53.255Z,54.8
2019-04-20T06:27:44.713Z,55.0
2019-04-20T06:28:42.294Z,54.6
2019-04-20T06:29:45.393Z,53.5
2019-04-20T06:30:41.083Z,53.3
2019-04-20T06:31:40.541Z,53.5
2019-04-20T06:32:50.634Z,53.5
2019-04-20T06:33:51.810Z,53.1
2019-04-20T06:34:47.705Z,52.8
2019-04-20T06:36:49.497Z,51.6
2019-04-20T06:38:55.583Z,50.8
2019-04-20T06:39:41.180Z,50.5
2019-04-20T06:40:59.215Z,49.9
2019-04-20T06:42:47.958Z,48.8
2019-04-20T06:43:52.606Z,49.9
2019-04-20T06:44:42.520Z,50.9
2019-04-20T06:45:56.351Z,49.9
2019-04-20T06:46:58.318Z,49.9
2019-04-20T06:47:51.346Z,49.6
2019-04-20T06:49:41.886Z,50.8
2019-04-20T06:50:43.818Z,49.2
2019-04-20T06:51:47.218Z,48.3
2019-04-20T06:52:45.135Z,49.1
2019-04-20T06:53:46.805Z,48.5
2019-04-20T06:54:48.129Z,47.3
2019-04-20T06:55:48.251Z,47.9
2019-04-20T06:56:47.017Z,48.1
2019-04-20T06:58:49.106Z,48.0
2019-04-20T06:59:45.689Z,47.4
2019-04-20T07:00:46.256Z,46.3
2019-04-20T07:04:00.251Z,45.2
2019-04-20T07:04:55.300Z,45.0
2019-04-20T07:05:50.347Z,44.9
2019-04-20T07:06:55.852Z,45.1
2019-04-20T07:07:51.130Z,44.0
2019-04-20T07:08:56.200Z,44.5
2019-04-20T07:09:59.659Z,44.4
2019-04-20T07:11:46.075Z,44.8
2019-04-20T07:12:36.770Z,44.8
2019-04-20T07:13:39.064Z,44.5
2019-04-20T07:14:42.537Z,44.9
2019-04-20T07:15:39.741Z,44.5
2019-04-20T07:18:49.495Z,43.9
2019-04-20T07:19:44.238Z,42.6
2019-04-20T07:20:55.205Z,42.1
2019-04-20T07:22:01.655Z,42.1
2019-04-20T07:22:37.314Z,42.2
2019-04-20T07:23:46.340Z,43.4
2019-04-20T07:24:45.604Z,42.0
2019-04-20T07:25:42.077Z,42.2
2019-04-20T07:27:39.898Z,41.7
2019-04-20T07:28:52.358Z,42.5
2019-04-20T07:29:51.295Z,43.0
2019-04-20T07:31:44.069Z,41.1
2019-04-20T07:32:52.019Z,40.5
2019-04-20T07:33:46.185Z,40.9
2019-04-20T07:34:51.149Z,40.0
2019-04-20T07:35:45.992Z,40.5
2019-04-20T07:36:45.386Z,39.7
2019-04-20T07:38:08.183Z,39.6
2019-04-20T07:38:46.048Z,39.2
2019-04-20T07:39:47.622Z,39.0
2019-04-20T07:41:54.232Z,37.9
2019-04-20T07:42:51.734Z,38.2
2019-04-20T07:43:52.607Z,38.1
2019-04-20T07:44:54.656Z,37.5
2019-04-20T07:45:41.178Z,38.8
2019-04-20T07:48:41.998Z,37.7
2019-04-20T07:49:45.542Z,37.0
2019-04-20T07:50:40.287Z,37.7
2019-04-20T07:51:32.018Z,38.4
2019-04-20T07:52:38.341Z,37.5
2019-04-20T07:53:40.109Z,36.9
2019-04-20T07:55:57.808Z,37.0
2019-04-20T07:56:47.456Z,36.6
2019-04-20T07:57:41.744Z,37.0
2019-04-20T07:58:35.632Z,36.4
2019-04-20T07:59:37.181Z,35.6
2019-04-20T08:00:54.916Z,35.2
2019-04-20T08:01:52.454Z,35.5
2019-04-20T08:02:42.339Z,35.4
2019-04-20T08:03:50.001Z,35.0
2019-04-20T08:04:42.089Z,36.0
2019-04-20T08:05:39.075Z,36.5
2019-04-20T08:06:33.630Z,36.0
2019-04-20T08:07:35.023Z,35.6
2019-04-20T08:08:43.415Z,35.0
2019-04-20T08:09:37.843Z,35.1
2019-04-20T08:10:37.921Z,34.7
2019-04-20T08:11:54.738Z,34.8
2019-04-20T08:12:49.783Z,35.1
2019-04-20T08:13:50.824Z,34.7
2019-04-20T08:14:55.188Z,35.4
2019-04-20T08:15:56.745Z,35.1
2019-04-20T08:16:58.105Z,34.0
2019-04-20T08:17:49.326Z,34.5
2019-04-20T08:18:49.584Z,35.8
2019-04-20T08:19:39.573Z,34.5
2019-04-20T08:20:52.229Z,34.5
2019-04-20T08:21:47.147Z,32.3
2019-04-20T08:22:51.468Z,32.4
2019-04-20T08:24:42.521Z,32.5
2019-04-20T08:25:41.741Z,33.0
2019-04-20T08:26:32.421Z,32.8
2019-04-20T08:27:19.442Z,32.4
2019-04-20T08:28:35.773Z,31.5
2019-04-20T08:29:44.939Z,31.2
2019-04-20T08:30:41.140Z,30.9
2019-04-20T08:31:35.640Z,31.6
2019-04-20T08:32:46.538Z,31.9
2019-04-20T08:33:54.409Z,31.2
2019-04-20T08:34:47.308Z,30.9
2019-04-20T08:35:52.268Z,30.4
2019-04-20T08:36:50.711Z,30.1
2019-04-20T08:37:46.846Z,30.3
2019-04-20T08:40:47.482Z,31.9
2019-04-20T08:41:44.868Z,31.4
2019-04-20T08:43:46.649Z,30.8
2019-04-20T08:44:59.760Z,30.7
2019-04-20T08:45:41.391Z,30.6
2019-04-20T08:46:58.357Z,30.6
2019-04-20T08:47:49.727Z,30.6
2019-04-20T08:48:45.694Z,31.2
2019-04-20T08:49:48.995Z,31.0
2019-04-20T08:50:50.320Z,30.1
2019-04-20T08:51:54.853Z,30.3
2019-04-20T08:53:46.235Z,31.0
2019-04-20T08:54:37.578Z,31.0
2019-04-20T08:55:44.829Z,30.8
2019-04-20T08:56:33.413Z,30.5
2019-04-20T08:57:18.013Z,30.8
2019-04-20T08:58:16.296Z,30.8
2019-04-20T08:59:16.967Z,31.4
2019-04-20T09:00:35.650Z,30.2
2019-04-20T09:01:28.366Z,30.2
2019-04-20T09:02:20.049Z,30.2
2019-04-20T09:03:28.851Z,29.7
2019-04-20T09:04:36.991Z,30.3
2019-04-20T09:05:39.528Z,29.6
2019-04-20T09:06:39.785Z,30.4
2019-04-20T09:07:28.215Z,30.0
2019-04-20T09:08:33.740Z,30.3
2019-04-20T09:09:48.815Z,30.0
2019-04-20T09:10:42.046Z,31.5
2019-04-20T09:11:48.991Z,29.8
2019-04-20T09:12:44.734Z,30.5
2019-04-20T09:13:33.880Z,30.0
2019-04-20T09:14:16.599Z,30.8
2019-04-20T09:15:16.976Z,30.9
2019-04-20T09:16:29.598Z,30.9
2019-04-20T09:17:35.494Z,30.1
2019-04-20T09:18:37.401Z,30.2
2019-04-20T09:19:39.755Z,30.7
2019-04-20T09:21:38.629Z,29.9
2019-04-20T09:22:37.776Z,30.2
2019-04-20T09:23:40.213Z,30.0
2019-04-20T09:24:50.804Z,30.0
2019-04-20T09:25:53.194Z,29.9
2019-04-20T09:26:47.319Z,30.8
2019-04-20T09:27:34.624Z,29.4
2019-04-20T09:28:37.021Z,30.2
2019-04-20T09:29:40.317Z,29.9
2019-04-20T09:30:39.317Z,28.9
2019-04-20T09:31:42.994Z,29.4
2019-04-20T09:32:43.776Z,30.1
2019-04-20T09:34:46.308Z,29.9
2019-04-20T09:35:47.172Z,30.4
2019-04-20T09:36:41.871Z,29.5
2019-04-20T09:37:47.020Z,29.3
2019-04-20T09:38:40.341Z,31.2
2019-04-20T09:39:35.659Z,31.8
2019-04-20T09:40:44.744Z,30.6
2019-04-20T09:41:46.449Z,30.5
2019-04-20T09:42:16.833Z,29.1
2019-04-20T09:43:19.885Z,29.9
2019-04-20T09:44:17.811Z,30.1
2019-04-20T09:45:32.880Z,29.5
2019-04-20T09:46:16.330Z,28.9
2019-04-20T09:47:32.189Z,29.1
2019-04-20T09:48:34.567Z,29.0
2019-04-20T09:49:42.260Z,29.6
2019-04-20T09:50:47.422Z,28.6
2019-04-20T09:51:43.490Z,28.7
2019-04-20T09:52:46.124Z,29.7
2019-04-20T09:53:35.564Z,30.0
2019-04-20T09:54:45.086Z,29.0
2019-04-20T09:55:39.994Z,29.6
2019-04-20T09:56:39.393Z,29.4
2019-04-20T09:57:43.466Z,29.1
2019-04-20T09:58:47.105Z,29.7
2019-04-20T09:59:49.413Z,29.9
2019-04-20T10:00:45.733Z,30.3
2019-04-20T10:01:34.828Z,29.2
2019-04-20T10:02:29.169Z,28.3
2019-04-20T10:03:18.572Z,28.1
2019-04-20T10:04:17.635Z,28.1
2019-04-20T10:05:17.812Z,29.3
2019-04-20T10:06:24.648Z,29.1
2019-04-20T10:07:25.257Z,28.1
2019-04-20T10:08:17.742Z,28.9
2019-04-20T10:09:27.753Z,29.1
2019-04-20T10:10:33.819Z,29.4
2019-04-20T10:11:17.431Z,29.1
2019-04-20T10:12:17.715Z,29.5
2019-04-20T10:13:17.566Z,29.1
2019-04-20T10:14:16.841Z,28.6
2019-04-20T10:15:24.821Z,28.8
2019-04-20T10:16:17.838Z,29.2
2019-04-20T10:17:18.176Z,28.7
2019-04-20T10:18:17.590Z,29.6
2019-04-20T10:19:28.856Z,29.5
2019-04-20T10:20:31.650Z,29.0
2019-04-20T10:21:18.109Z,29.2
2019-04-20T10:22:16.374Z,29.2
2019-04-20T10:23:16.634Z,28.8
2019-04-20T10:24:16.900Z,28.6
2019-04-20T10:25:18.424Z,28.6
2019-04-20T10:26:16.688Z,29.4
2019-04-20T10:27:16.961Z,28.9
2019-04-20T10:28:17.223Z,28.3
2019-04-20T10:29:17.571Z,28.9
2019-04-20T10:30:16.877Z,28.2
2019-04-20T10:31:16.900Z,27.9
2019-04-20T10:32:18.347Z,28.7
2019-04-20T10:33:17.744Z,28.7
2019-04-20T10:34:22.067Z,28.3
2019-04-20T10:35:18.924Z,27.6
2019-04-20T10:36:17.462Z,27.9
2019-04-20T10:37:17.725Z,28.8
2019-04-20T10:38:17.969Z,28.3
2019-04-20T10:39:18.600Z,28.2
2019-04-20T10:40:41.062Z,28.5
2019-04-20T10:41:37.638Z,28.5
2019-04-20T10:42:18.470Z,29.0
2019-04-20T10:43:16.747Z,28.6
2019-04-20T10:44:17.008Z,28.5
2019-04-20T10:45:17.150Z,28.7
2019-04-20T10:46:17.431Z,28.0
2019-04-20T10:47:18.690Z,28.4
2019-04-20T10:48:17.459Z,28.6
2019-04-20T10:49:17.633Z,29.3
2019-04-20T10:50:17.032Z,29.4
2019-04-20T10:51:17.834Z,29.0
2019-04-20T10:52:17.953Z,29.0
2019-04-20T10:53:17.701Z,28.6
2019-04-20T10:54:18.482Z,28.5
2019-04-20T10:55:16.754Z,28.6
2019-04-20T10:56:17.023Z,28.6
2019-04-20T10:57:17.554Z,28.2
2019-04-20T10:58:17.807Z,28.6
2019-04-20T10:59:17.077Z,29.0
2019-04-20T11:00:17.643Z,28.8
2019-04-20T11:01:17.960Z,28.9
2019-04-20T11:02:17.226Z,29.2
2019-04-20T11:03:17.900Z,29.1
2019-04-20T11:04:17.207Z,28.9
2019-04-20T11:05:17.050Z,29.0
2019-04-20T11:06:16.594Z,28.2
2019-04-20T11:07:16.855Z,28.2
2019-04-20T11:08:17.140Z,27.9
2019-04-20T11:09:16.630Z,28.1
2019-04-20T11:10:27.147Z,28.6
2019-04-20T11:11:27.309Z,27.1
2019-04-20T11:12:16.762Z,27.0
2019-04-20T11:13:17.352Z,27.1
2019-04-20T11:14:31.082Z,28.0
2019-04-20T11:15:17.096Z,28.1
2019-04-20T11:16:16.358Z,28.2
2019-04-20T11:17:16.629Z,27.4
2019-04-20T11:18:17.833Z,28.1
2019-04-20T11:19:17.123Z,27.9
2019-04-20T11:20:17.356Z,27.2
2019-04-20T11:21:17.583Z,27.6
2019-04-20T11:22:16.852Z,28.6
2019-04-20T11:23:18.311Z,27.9
2019-04-20T11:24:16.577Z,28.2
2019-04-20T11:25:16.829Z,28.1
2019-04-20T11:26:18.216Z,27.3
2019-04-20T11:27:16.497Z,27.1
2019-04-20T11:28:16.766Z,26.6
2019-04-20T11:29:18.287Z,26.4
2019-04-20T11:30:16.563Z,26.8
2019-04-20T11:31:16.764Z,26.0
2019-04-20T11:32:18.134Z,26.4
2019-04-20T11:33:16.410Z,25.6
2019-04-20T11:34:28.306Z,26.5
2019-04-20T11:35:31.126Z,26.6
2019-04-20T11:36:17.223Z,26.8
2019-04-20T11:37:17.341Z,26.3
2019-04-20T11:38:17.571Z,27.5
2019-04-20T11:39:16.962Z,27.2
2019-04-20T11:40:17.224Z,26.8
2019-04-20T11:41:25.927Z,26.6
2019-04-20T11:42:17.534Z,27.5
2019-04-20T11:43:17.915Z,26.7
2019-04-20T11:44:18.002Z,27.2
2019-04-20T11:45:16.273Z,28.3
2019-04-20T11:46:16.687Z,27.8
2019-04-20T11:47:16.982Z,28.9
2019-04-20T11:48:17.250Z,30.0
2019-04-20T11:49:17.600Z,29.0
2019-04-20T11:50:17.934Z,29.5
2019-04-20T11:51:16.928Z,28.4
2019-04-20T11:52:21.837Z,28.9
2019-04-20T11:53:17.569Z,29.2
2019-04-20T11:54:16.831Z,28.5
2019-04-20T11:55:18.267Z,28.6
2019-04-20T11:56:25.863Z,28.9
2019-04-20T11:57:17.551Z,28.8
2019-04-20T11:58:16.803Z,28.4
2019-04-20T11:59:17.089Z,28.0
2019-04-20T12:00:17.375Z,29.3
2019-04-20T12:01:22.383Z,28.6
2019-04-20T12:02:32.060Z,29.2
2019-04-20T12:03:32.410Z,28.1
2019-04-20T12:04:38.022Z,28.5
2019-04-20T12:05:35.096Z,28.5
2019-04-20T12:06:16.957Z,28.5
2019-04-20T12:07:17.236Z,29.1
2019-04-20T12:08:16.778Z,28.7
2019-04-20T12:09:17.187Z,30.2
2019-04-20T12:10:23.813Z,30.2
2019-04-20T12:11:33.816Z,29.6
2019-04-20T12:12:36.695Z,29.1
2019-04-20T12:13:16.643Z,29.3
2019-04-20T12:14:16.906Z,28.3
2019-04-20T12:15:17.178Z,28.3
2019-04-20T12:16:17.425Z,27.9
2019-04-20T12:17:17.758Z,28.5
2019-04-20T12:18:18.044Z,27.9
2019-04-20T12:19:16.310Z,28.2
2019-04-20T12:20:16.847Z,28.2
2019-04-20T12:21:16.947Z,28.6
2019-04-20T12:22:18.087Z,28.5
2019-04-20T12:23:16.423Z,28.9
2019-04-20T12:24:16.686Z,28.0
2019-04-20T12:25:18.373Z,28.0
2019-04-20T12:26:16.629Z,28.5
2019-04-20T12:27:16.903Z,28.5
2019-04-20T12:28:18.088Z,29.1
2019-04-20T12:29:16.373Z,28.9
2019-04-20T12:30:17.654Z,28.4
2019-04-20T12:31:24.050Z,28.6
2019-04-20T12:32:16.956Z,29.1
2019-04-20T12:33:17.914Z,28.6
2019-04-20T12:34:18.246Z,29.4
2019-04-20T12:35:16.510Z,28.9
2019-04-20T12:36:16.774Z,28.4
2019-04-20T12:37:17.039Z,28.8
2019-04-20T12:38:17.262Z,28.9
2019-04-20T12:39:17.390Z,28.8
2019-04-20T12:40:17.471Z,26.8
2019-04-20T12:41:21.712Z,27.1
2019-04-20T12:42:17.116Z,26.3
2019-04-20T12:43:17.467Z,26.7
2019-04-20T12:44:17.650Z,26.0
2019-04-20T12:45:17.792Z,26.0
2019-04-20T12:46:21.455Z,26.2
2019-04-20T12:47:17.589Z,26.5
2019-04-20T12:48:17.737Z,26.9
2019-04-20T12:49:18.074Z,27.0
2019-04-20T12:50:17.446Z,26.9
2019-04-20T12:51:17.643Z,27.2
2019-04-20T12:52:16.908Z,26.9
2019-04-20T12:53:17.244Z,27.0
2019-04-20T12:54:16.739Z,26.6
2019-04-20T12:55:17.015Z,28.1
2019-04-20T12:56:17.036Z,27.0
2019-04-20T12:57:16.676Z,27.2
2019-04-20T12:58:16.937Z,27.6
2019-04-20T12:59:18.010Z,28.1
2019-04-20T13:00:17.502Z,27.6
2019-04-20T13:01:22.017Z,28.9
2019-04-20T13:02:17.638Z,29.3
2019-04-20T13:03:17.399Z,28.6
2019-04-20T13:04:16.674Z,28.4
2019-04-20T13:05:17.662Z,27.9
2019-04-20T13:06:16.924Z,27.4
2019-04-20T13:07:17.799Z,27.5
2019-04-20T13:08:30.233Z,27.7
2019-04-20T13:09:16.962Z,27.8
2019-04-20T13:10:17.943Z,27.5
2019-04-20T13:11:16.430Z,26.7
2019-04-20T13:12:17.529Z,26.7
2019-04-20T13:13:16.791Z,26.8
2019-04-20T13:14:17.057Z,25.9
2019-04-20T13:15:16.326Z,26.1
2019-04-20T13:16:16.594Z,25.9
2019-04-20T13:17:16.852Z,25.9
2019-04-20T13:18:17.129Z,25.9
2019-04-20T13:19:17.338Z,26.9
2019-04-20T13:20:16.601Z,26.9
2019-04-20T13:21:16.903Z,26.1
2019-04-20T13:22:17.193Z,26.1
2019-04-20T13:23:17.324Z,26.6
2019-04-20T13:24:16.869Z,27.0
2019-04-20T13:25:17.148Z,27.4
2019-04-20T13:26:17.672Z,26.6
2019-04-20T13:27:16.991Z,27.1
2019-04-20T13:28:16.997Z,27.9
2019-04-20T13:29:17.245Z,26.9
2019-04-20T13:30:16.737Z,26.1
2019-04-20T13:31:17.861Z,26.4
2019-04-20T13:32:18.216Z,26.9
2019-04-20T13:33:17.692Z,26.1
2019-04-20T13:34:17.412Z,27.0
2019-04-20T13:35:16.683Z,27.0
2019-04-20T13:36:16.944Z,26.9
2019-04-20T13:37:18.119Z,27.1
2019-04-20T13:38:16.394Z,26.4
2019-04-20T13:39:16.663Z,25.9
2019-04-20T13:40:17.806Z,26.1
2019-04-20T13:41:17.960Z,26.7
2019-04-20T13:42:26.303Z,26.6
2019-04-20T13:43:17.709Z,26.9
2019-04-20T13:44:18.107Z,26.9
2019-04-20T13:45:17.146Z,27.0
2019-04-20T13:46:16.419Z,27.1
2019-04-20T13:47:16.987Z,27.4
2019-04-20T13:48:17.079Z,26.5
2019-04-20T13:49:16.353Z,26.6
2019-04-20T13:50:18.035Z,26.9
2019-04-20T13:51:16.931Z,26.0
2019-04-20T13:52:17.267Z,26.4
2019-04-20T13:53:17.159Z,27.2
2019-04-20T13:54:24.064Z,26.9
2019-04-20T13:55:17.288Z,26.9
2019-04-20T13:56:16.678Z,27.6
2019-04-20T13:57:17.875Z,27.4